Time;durP1;ratioP1;P1;durP2;ratioP2;P2;SDS_P1;SDS_P2;PMS_P1;PMS_P2;Temp;Humidity;BMP_temperature;BMP_pressure;BME280_temperature;BME280_humidity;BME280_pressure;Samples;Min_cycle;Max_cycle;Signal;HPM_P1;HPM_P2
2022/12/25 00:00:31;;;;;;;94.13;86.43;;;8.00;99.90;;;;;;5097237;28;20031;-69
2022/12/25 00:02:57;;;;;;;95.47;87.55;;;8.00;99.90;;;;;;5096804;28;20036;-70
2022/12/25 00:05:22;;;;;;;102.28;91.57;;;7.90;99.90;;;;;;5096943;28;20105;-69
2022/12/25 00:07:48;;;;;;;98.25;90.32;;;7.90;99.90;;;;;;5097130;28;20040;-70
2022/12/25 00:10:14;;;;;;;103.72;94.90;;;7.90;99.90;;;;;;5062474;28;20322;-70
2022/12/25 00:12:39;;;;;;;109.47;98.15;;;7.80;99.90;;;;;;5096968;28;20043;-70
2022/12/25 00:15:06;;;;;;;107.55;97.47;;;7.90;99.90;;;;;;5096972;28;20421;-70
2022/12/25 00:17:32;;;;;;;104.82;96.32;;;7.80;99.90;;;;;;5079524;28;20040;-70
2022/12/25 00:19:57;;;;;;;105.07;95.80;;;7.90;99.90;;;;;;5096841;28;20038;-69
2022/12/25 00:22:23;;;;;;;107.18;96.28;;;7.90;99.90;;;;;;5096565;28;20085;-69
2022/12/25 00:24:49;;;;;;;104.57;94.22;;;8.00;99.90;;;;;;5096196;28;20039;-70
2022/12/25 00:27:15;;;;;;;108.70;98.10;;;8.00;99.90;;;;;;5096832;28;20044;-70
2022/12/25 00:29:41;;;;;;;100.78;91.75;;;8.00;99.90;;;;;;5096791;28;20036;-70
2022/12/25 00:32:07;;;;;;;108.60;98.43;;;8.00;99.90;;;;;;5096509;28;20143;-70
2022/12/25 00:34:33;;;;;;;107.05;98.28;;;8.00;99.90;;;;;;5096446;28;20047;-70
2022/12/25 00:36:58;;;;;;;106.03;97.43;;;8.00;99.90;;;;;;5095412;28;20048;-70
2022/12/25 00:39:24;;;;;;;111.35;99.97;;;8.00;99.90;;;;;;5096564;28;20036;-70
2022/12/25 00:44:34;;;;;;;110.65;99.85;;;8.00;99.90;;;;;;5096474;28;20050;-70
2022/12/25 00:47:00;;;;;;;107.85;99.22;;;8.00;99.90;;;;;;5096970;28;20119;-69
2022/12/25 00:49:26;;;;;;;103.78;95.00;;;8.00;99.90;;;;;;5100782;28;20409;-69
2022/12/25 00:51:52;;;;;;;115.38;102.68;;;8.00;99.90;;;;;;5100697;28;20036;-69
2022/12/25 00:54:18;;;;;;;102.10;93.47;;;8.00;99.90;;;;;;5100439;28;20032;-70
2022/12/25 00:56:44;;;;;;;109.88;99.50;;;7.90;99.90;;;;;;5100334;28;20036;-69
2022/12/25 00:59:11;;;;;;;108.95;99.15;;;7.90;99.90;;;;;;5100477;28;20041;-70
2022/12/25 01:01:37;;;;;;;109.78;99.60;;;7.70;99.90;;;;;;5099446;28;20352;-69
2022/12/25 01:04:03;;;;;;;116.47;104.95;;;7.80;99.90;;;;;;5100094;28;20039;-69
2022/12/25 01:06:29;;;;;;;108.22;99.25;;;7.90;99.90;;;;;;5100307;28;20075;-69
2022/12/25 01:11:40;;;;;;;108.35;98.13;;;8.00;99.90;;;;;;5100404;28;20447;-70
2022/12/25 01:14:06;;;;;;;105.43;96.53;;;8.00;99.90;;;;;;5100310;28;20071;-70
2022/12/25 01:16:32;;;;;;;106.25;96.13;;;8.00;99.90;;;;;;5100198;28;20035;-70
2022/12/25 01:18:57;;;;;;;106.53;98.13;;;7.90;99.90;;;;;;5098937;28;20039;-70
2022/12/25 01:21:23;;;;;;;109.88;99.63;;;7.90;99.90;;;;;;5100067;28;20039;-70
2022/12/25 01:23:51;;;;;;;112.63;101.32;;;8.00;99.90;;;;;;5100039;28;20036;-69
2022/12/25 01:26:18;;;;;;;113.40;101.05;;;8.00;99.90;;;;;;5099501;28;20079;-70
2022/12/25 01:28:44;;;;;;;110.93;100.20;;;8.00;99.90;;;;;;5099630;28;20048;-69
2022/12/25 01:31:13;;;;;;;114.22;101.72;;;8.00;99.90;;;;;;5099868;28;20032;-70
2022/12/25 01:33:42;;;;;;;110.30;100.40;;;8.00;99.90;;;;;;5099459;28;20043;-69
2022/12/25 01:36:23;;;;;;;110.28;101.05;;;8.10;99.90;;;;;;5099824;28;20040;-69
2022/12/25 01:38:50;;;;;;;110.05;100.53;;;8.10;99.90;;;;;;5098497;28;20040;-70
2022/12/25 01:41:18;;;;;;;109.53;99.80;;;8.10;99.90;;;;;;5099456;28;20048;-70
2022/12/25 01:44:01;;;;;;;115.22;102.72;;;8.00;99.90;;;;;;5098560;28;20044;-69
2022/12/25 01:46:28;;;;;;;109.00;99.65;;;8.00;99.90;;;;;;5098258;28;20368;-70
2022/12/25 01:48:57;;;;;;;112.28;101.15;;;8.10;99.90;;;;;;5099227;28;20440;-69
2022/12/25 01:51:33;;;;;;;116.88;104.78;;;8.10;99.90;;;;;;5099428;28;20044;-69
2022/12/25 01:54:04;;;;;;;111.55;100.95;;;8.20;99.90;;;;;;5099647;28;20111;-70
2022/12/25 01:56:30;;;;;;;115.40;103.13;;;8.30;99.90;;;;;;5098354;28;20089;-70
2022/12/25 01:58:57;;;;;;;112.25;100.18;;;8.20;99.90;;;;;;5098363;28;20452;-70
2022/12/25 02:01:23;;;;;;;107.55;97.00;;;8.30;99.90;;;;;;5099292;28;20381;-69
2022/12/25 02:03:48;;;;;;;119.63;99.70;;;8.20;99.90;;;;;;5099064;28;20074;-70
2022/12/25 02:06:14;;;;;;;110.60;99.40;;;8.30;99.90;;;;;;5098233;28;20413;-70
2022/12/25 02:08:40;;;;;;;140.90;101.90;;;8.40;99.90;;;;;;5098245;28;20368;-70
2022/12/25 02:11:55;;;;;;;106.40;96.50;;;8.40;99.90;;;;;;5081035;28;20040;-70
2022/12/25 02:13:53;;;;;;;145.95;100.47;;;8.40;99.90;;;;;;5098829;28;20114;-70
2022/12/25 02:16:28;;;;;;;108.50;97.75;;;8.40;99.90;;;;;;5099088;28;20036;-70
2022/12/25 02:19:04;;;;;;;139.88;100.50;;;8.40;99.90;;;;;;5098761;28;20044;-70
2022/12/25 02:21:50;;;;;;;109.35;97.57;;;8.50;99.90;;;;;;5099153;28;20055;-70
2022/12/25 02:24:34;;;;;;;106.05;94.03;;;8.50;99.90;;;;;;5097778;28;20119;-70
2022/12/25 02:27:10;;;;;;;101.10;91.15;;;8.60;99.90;;;;;;5097390;28;20048;-70
2022/12/25 02:29:46;;;;;;;137.65;96.18;;;8.50;99.90;;;;;;5080694;28;20101;-70
2022/12/25 02:32:29;;;;;;;120.78;94.78;;;8.50;99.90;;;;;;5098884;28;20048;-70
2022/12/25 02:35:07;;;;;;;106.00;95.43;;;8.50;99.90;;;;;;5097438;28;20141;-70
2022/12/25 02:37:51;;;;;;;159.40;97.95;;;8.60;99.90;;;;;;5098712;28;20044;-70
2022/12/25 02:40:30;;;;;;;108.70;90.85;;;8.50;99.90;;;;;;5098373;28;20444;-70
2022/12/25 03:06:41;;;;;;;;;;;8.70;99.90;;;;;;5098687;28;20093;-70
2022/12/25 03:12:26;;;;;;;131.73;94.45;;;8.80;99.90;;;;;;5096114;28;20120;-70
2022/12/25 03:17:36;;;;;;;99.13;89.43;;;8.70;99.90;;;;;;5097152;28;20055;-70
2022/12/25 03:28:17;;;;;;;96.88;87.72;;;8.60;99.90;;;;;;5097768;28;20310;-70
2022/12/25 03:31:12;;;;;;;100.20;90.07;;;8.70;99.90;;;;;;5097702;28;20050;-69
2022/12/25 04:38:32;;;;;;;94.20;85.00;;;8.70;99.90;;;;;;5095383;28;20407;-70
2022/12/25 04:40:59;;;;;;;97.53;85.88;;;8.80;99.90;;;;;;5096752;28;20040;-69
2022/12/25 04:43:25;;;;;;;126.80;91.68;;;8.80;99.90;;;;;;5096499;28;20051;-70
2022/12/25 04:45:55;;;;;;;133.63;90.28;;;8.80;99.90;;;;;;5096454;28;20044;-69
2022/12/25 04:48:21;;;;;;;129.65;89.75;;;8.90;99.90;;;;;;5096402;28;20036;-69
2022/12/25 04:50:47;;;;;;;96.00;86.63;;;8.90;99.90;;;;;;5096713;28;20048;-70
2022/12/25 04:53:13;;;;;;;101.65;86.22;;;8.90;99.90;;;;;;5095252;28;20082;-69
2022/12/25 04:55:38;;;;;;;167.02;93.45;;;9.00;99.90;;;;;;5096589;28;20105;-70
2022/12/25 04:58:04;;;;;;;111.05;87.05;;;8.90;99.90;;;;;;5095334;28;20045;-69
2022/12/25 05:00:30;;;;;;;104.38;83.72;;;8.90;99.90;;;;;;5096528;28;20051;-70
2022/12/25 05:02:57;;;;;;;125.80;89.05;;;9.00;99.90;;;;;;5096208;28;20043;-70
2022/12/25 05:05:23;;;;;;;105.07;85.60;;;9.10;99.90;;;;;;5096387;28;20170;-70
2022/12/25 05:07:48;;;;;;;124.72;87.75;;;9.10;99.90;;;;;;5096428;28;20393;-69
2022/12/25 05:10:14;;;;;;;127.18;89.57;;;9.20;99.90;;;;;;5095486;28;20040;-69
2022/12/25 05:12:40;;;;;;;98.15;85.57;;;9.20;99.90;;;;;;5096141;28;20440;-69
2022/12/25 05:15:06;;;;;;;111.35;87.65;;;9.20;99.90;;;;;;5096098;28;20036;-69
2022/12/25 05:17:32;;;;;;;97.53;87.18;;;9.20;99.90;;;;;;5096171;28;20040;-69
2022/12/25 05:19:58;;;;;;;92.30;82.82;;;9.10;99.90;;;;;;5078314;28;20036;-70
2022/12/25 05:22:23;;;;;;;124.53;88.10;;;9.10;99.90;;;;;;5096281;28;20059;-70
2022/12/25 05:24:49;;;;;;;143.15;89.43;;;9.20;99.90;;;;;;5095061;28;20062;-70
2022/12/25 05:27:15;;;;;;;129.70;86.00;;;9.10;99.90;;;;;;5096337;28;20036;-69
2022/12/25 05:29:41;;;;;;;146.40;86.50;;;9.30;99.90;;;;;;5096291;28;20032;-69
2022/12/25 05:32:06;;;;;;;135.48;89.03;;;9.40;99.90;;;;;;5096205;28;20043;-69
2022/12/25 05:34:32;;;;;;;92.80;82.70;;;9.30;99.90;;;;;;5095915;28;20047;-69
2022/12/25 05:36:58;;;;;;;95.43;82.20;;;9.30;99.90;;;;;;5099891;28;20043;-69
2022/12/25 05:39:23;;;;;;;118.53;83.47;;;9.30;99.90;;;;;;5098539;28;20084;-69
2022/12/25 05:41:49;;;;;;;100.32;82.63;;;9.30;99.90;;;;;;5099543;28;20036;-70
2022/12/25 05:44:15;;;;;;;117.35;85.63;;;9.30;99.90;;;;;;5099750;28;20032;-70
2022/12/25 05:46:41;;;;;;;100.85;85.85;;;9.30;99.90;;;;;;5099646;28;20040;-69
2022/12/25 05:49:07;;;;;;;100.78;85.65;;;9.30;99.90;;;;;;5099736;28;20047;-70
2022/12/25 05:51:35;;;;;;;146.63;86.68;;;9.30;99.90;;;;;;5099331;28;20426;-69
2022/12/25 05:54:01;;;;;;;99.90;79.93;;;9.30;99.90;;;;;;5081410;28;20067;-69
2022/12/25 05:56:27;;;;;;;116.35;85.90;;;9.30;99.90;;;;;;5099443;28;20036;-69
2022/12/25 05:58:53;;;;;;;107.72;83.18;;;9.30;99.90;;;;;;5099425;28;20044;-69
2022/12/25 06:01:22;;;;;;;109.70;84.18;;;9.40;99.90;;;;;;5098733;28;20039;-69
2022/12/25 06:03:48;;;;;;;129.18;84.90;;;9.40;99.90;;;;;;5099074;28;20040;-69
2022/12/25 06:06:14;;;;;;;115.75;79.82;;;9.50;99.90;;;;;;5099246;28;20040;-70
2022/12/25 06:08:40;;;;;;;200.00;88.05;;;9.40;99.90;;;;;;5099308;28;20119;-69
2022/12/25 06:11:07;;;;;;;127.35;80.25;;;9.50;99.90;;;;;;5097911;28;20036;-70
2022/12/25 06:13:33;;;;;;;115.30;85.70;;;9.40;99.90;;;;;;5098943;28;20569;-69
2022/12/25 06:16:06;;;;;;;137.05;83.00;;;9.40;99.90;;;;;;5099105;28;20325;-69
2022/12/25 06:18:35;;;;;;;117.00;84.72;;;9.40;99.90;;;;;;5099100;28;20058;-69
2022/12/25 06:21:05;;;;;;;123.93;85.63;;;9.40;99.90;;;;;;5099119;28;20101;-69
2022/12/25 06:23:31;;;;;;;128.73;86.18;;;9.30;99.90;;;;;;5099089;28;20051;-69
2022/12/25 06:25:57;;;;;;;154.95;88.80;;;9.40;99.90;;;;;;5098528;28;20059;-69
2022/12/25 06:28:22;;;;;;;140.95;89.80;;;9.40;99.90;;;;;;5098526;28;20040;-71
2022/12/25 06:30:48;;;;;;;130.32;89.47;;;9.30;99.90;;;;;;5098911;28;20040;-70
2022/12/25 06:33:14;;;;;;;108.90;82.32;;;9.30;99.90;;;;;;5098495;28;20041;-70
2022/12/25 06:35:39;;;;;;;140.57;83.75;;;9.30;99.90;;;;;;5080580;28;20044;-70
2022/12/25 06:38:05;;;;;;;129.10;83.80;;;9.40;99.90;;;;;;5098391;28;20089;-69
2022/12/25 06:40:31;;;;;;;107.95;80.97;;;9.40;99.90;;;;;;5098661;28;20043;-70
2022/12/25 06:42:56;;;;;;;124.57;79.53;;;9.40;99.90;;;;;;5098430;28;20058;-69
2022/12/25 06:45:22;;;;;;;122.38;84.05;;;9.50;99.90;;;;;;5098041;28;20046;-70
2022/12/25 06:47:47;;;;;;;118.03;80.55;;;9.50;99.90;;;;;;5098607;28;20031;-70
2022/12/25 06:50:13;;;;;;;105.85;78.70;;;9.50;99.90;;;;;;5098445;28;20409;-70
2022/12/25 06:52:39;;;;;;;111.70;81.18;;;9.60;99.90;;;;;;5098132;28;20474;-70
2022/12/25 06:55:05;;;;;;;145.50;82.68;;;9.60;99.90;;;;;;5098273;28;20036;-69
2022/12/25 06:57:31;;;;;;;172.98;84.95;;;9.70;99.90;;;;;;5097318;28;20044;-69
2022/12/25 06:59:57;;;;;;;145.40;86.50;;;9.70;99.90;;;;;;5098313;28;20039;-69
2022/12/25 07:02:23;;;;;;;116.32;79.00;;;9.80;99.90;;;;;;5097192;28;20048;-70
2022/12/25 07:04:50;;;;;;;230.75;89.75;;;9.70;99.90;;;;;;5097816;28;20048;-70
2022/12/25 07:07:15;;;;;;;172.07;88.03;;;9.70;99.90;;;;;;5097931;28;20064;-70
2022/12/25 07:09:41;;;;;;;129.20;84.50;;;9.60;99.90;;;;;;5097093;28;20074;-70
2022/12/25 07:12:26;;;;;;;99.15;80.10;;;9.70;99.90;;;;;;5079873;28;20429;-69
2022/12/25 07:14:54;;;;;;;119.00;81.10;;;9.80;99.90;;;;;;5096849;28;20089;-69
2022/12/25 07:17:20;;;;;;;107.35;79.93;;;9.80;99.90;;;;;;5098018;28;20040;-69
2022/12/25 07:19:46;;;;;;;137.73;84.93;;;9.70;99.90;;;;;;5097852;28;20336;-69
2022/12/25 07:22:12;;;;;;;229.38;86.15;;;9.80;99.90;;;;;;5096883;28;20223;-70
2022/12/25 07:24:38;;;;;;;107.97;78.18;;;9.80;99.90;;;;;;5097694;28;20043;-70
2022/12/25 07:27:04;;;;;;;118.80;81.65;;;9.90;99.90;;;;;;5096303;28;20056;-69
2022/12/25 07:29:30;;;;;;;124.03;82.55;;;9.80;99.90;;;;;;5097439;28;20040;-69
2022/12/25 07:31:55;;;;;;;96.75;79.50;;;9.70;99.90;;;;;;5097725;28;20115;-70
2022/12/25 07:34:22;;;;;;;107.60;82.82;;;9.90;99.90;;;;;;5097247;28;20032;-70
2022/12/25 07:36:48;;;;;;;102.80;79.47;;;9.90;99.90;;;;;;5097564;28;20043;-70
2022/12/25 07:39:15;;;;;;;102.95;81.72;;;9.90;99.90;;;;;;5097246;28;20040;-69
2022/12/25 07:41:41;;;;;;;109.85;80.43;;;10.00;99.90;;;;;;5097499;28;20107;-69
2022/12/25 07:44:06;;;;;;;98.60;82.63;;;9.80;99.90;;;;;;5097538;28;20051;-69
2022/12/25 07:46:32;;;;;;;122.53;87.82;;;9.80;99.90;;;;;;5096350;28;20052;-70
2022/12/25 07:48:58;;;;;;;93.78;83.53;;;9.90;99.90;;;;;;5097453;28;20036;-70
2022/12/25 07:51:23;;;;;;;96.30;79.57;;;9.90;99.90;;;;;;5097392;28;20068;-69
2022/12/25 07:53:49;;;;;;;116.35;83.97;;;9.90;99.90;;;;;;5095997;28;20040;-70
2022/12/25 07:56:18;;;;;;;90.72;78.00;;;9.90;99.90;;;;;;5097264;28;20044;-70
2022/12/25 07:58:44;;;;;;;104.68;86.60;;;9.90;99.90;;;;;;5078369;28;20051;-69
2022/12/25 08:01:13;;;;;;;103.53;86.00;;;9.90;99.90;;;;;;5097218;28;20076;-69
2022/12/25 08:03:39;;;;;;;114.88;83.85;;;9.80;99.90;;;;;;5095894;28;20043;-70
2022/12/25 08:06:07;;;;;;;153.18;91.38;;;9.90;99.90;;;;;;5097038;28;20417;-69
2022/12/25 08:08:34;;;;;;;97.35;85.82;;;9.90;99.90;;;;;;5097048;28;20321;-69
2022/12/25 08:11:00;;;;;;;95.18;84.70;;;9.90;99.90;;;;;;5096073;28;20035;-70
2022/12/25 08:13:28;;;;;;;124.55;84.97;;;9.90;99.90;;;;;;5097087;28;20032;-69
2022/12/25 08:15:58;;;;;;;113.85;88.07;;;9.80;99.90;;;;;;5096751;28;20423;-70
2022/12/25 08:18:24;;;;;;;103.35;90.45;;;9.90;99.90;;;;;;5096929;28;20119;-70
2022/12/25 08:20:49;;;;;;;97.10;86.78;;;9.90;99.90;;;;;;5078882;28;20122;-69
2022/12/25 08:23:15;;;;;;;102.32;86.22;;;10.00;99.90;;;;;;5078684;28;20040;-70
2022/12/25 08:25:41;;;;;;;95.47;85.68;;;10.00;99.90;;;;;;5096589;28;20048;-69
2022/12/25 08:28:06;;;;;;;96.80;85.93;;;9.90;99.90;;;;;;5096857;28;20036;-69
2022/12/25 08:30:32;;;;;;;96.85;87.32;;;9.90;99.90;;;;;;5078698;28;20076;-69
2022/12/25 08:32:58;;;;;;;97.00;87.30;;;10.00;99.90;;;;;;5096575;28;20036;-70
2022/12/25 08:35:25;;;;;;;99.43;88.47;;;10.00;99.90;;;;;;5095842;28;20371;-69
2022/12/25 08:37:51;;;;;;;96.97;87.43;;;10.00;99.90;;;;;;5096529;28;20174;-70
2022/12/25 08:40:16;;;;;;;97.80;88.65;;;9.90;99.90;;;;;;5078664;28;20118;-70
2022/12/25 08:42:42;;;;;;;95.05;85.78;;;9.90;99.90;;;;;;5096800;28;20036;-70
2022/12/25 08:45:08;;;;;;;96.82;87.60;;;9.80;99.90;;;;;;5096641;28;20047;-69
2022/12/25 08:47:34;;;;;;;97.78;88.93;;;9.80;99.90;;;;;;5096587;28;20409;-69
2022/12/25 08:50:00;;;;;;;94.05;84.88;;;9.80;99.90;;;;;;5095413;28;20036;-69
2022/12/25 08:52:27;;;;;;;87.38;79.13;;;9.80;99.90;;;;;;5095342;28;20036;-69
2022/12/25 08:54:53;;;;;;;90.93;82.93;;;9.80;99.90;;;;;;5095370;28;20133;-69
2022/12/25 08:57:19;;;;;;;94.00;84.90;;;9.80;99.90;;;;;;5095154;28;20063;-70
2022/12/25 08:59:44;;;;;;;89.90;82.57;;;9.90;99.90;;;;;;5095742;28;20044;-69
2022/12/25 09:02:11;;;;;;;92.90;83.82;;;9.80;99.90;;;;;;5095926;28;20042;-69
2022/12/25 09:04:37;;;;;;;92.32;83.50;;;9.80;99.90;;;;;;5095902;28;20040;-70
2022/12/25 09:07:02;;;;;;;89.55;81.65;;;9.90;99.90;;;;;;5096515;28;20102;-69
2022/12/25 09:09:28;;;;;;;90.97;82.65;;;9.90;99.90;;;;;;5097508;28;20036;-69
2022/12/25 09:11:54;;;;;;;87.85;80.63;;;10.00;99.90;;;;;;5099204;28;20040;-69
2022/12/25 09:14:23;;;;;;;90.57;83.30;;;9.90;99.90;;;;;;5099143;28;20122;-69
2022/12/25 09:16:49;;;;;;;96.40;88.05;;;9.90;99.90;;;;;;5099329;28;20124;-68
2022/12/25 09:19:15;;;;;;;92.68;85.50;;;10.00;99.90;;;;;;5100311;28;20116;-69
2022/12/25 09:21:41;;;;;;;93.28;86.25;;;10.10;99.90;;;;;;5100021;28;20399;-69
2022/12/25 09:24:07;;;;;;;95.38;86.47;;;10.00;99.90;;;;;;5099912;28;20048;-67
2022/12/25 09:26:33;;;;;;;98.32;90.55;;;10.00;99.90;;;;;;5099632;28;20051;-66
2022/12/25 09:28:58;;;;;;;100.05;91.05;;;9.90;99.90;;;;;;5098766;28;20047;-66
2022/12/25 09:31:24;;;;;;;98.43;91.10;;;10.00;99.90;;;;;;5099853;28;20090;-67
2022/12/25 09:33:50;;;;;;;101.75;94.32;;;10.00;99.90;;;;;;5097543;28;20325;-67
2022/12/25 09:36:16;;;;;;;100.80;93.07;;;9.90;99.90;;;;;;5097287;28;20145;-69
2022/12/25 09:38:42;;;;;;;104.30;96.68;;;10.00;99.90;;;;;;5098793;28;20040;-67
2022/12/25 09:41:27;;;;;;;99.78;92.47;;;9.90;99.90;;;;;;5099921;28;20036;-67
2022/12/25 09:44:12;;;;;;;103.05;95.57;;;10.00;99.90;;;;;;5098627;28;20448;-68
2022/12/25 09:47:13;;;;;;;104.90;97.18;;;9.80;99.90;;;;;;5099684;28;20048;-68
2022/12/25 09:49:47;;;;;;;104.10;96.30;;;9.80;99.90;;;;;;5099416;28;20040;-67
2022/12/25 09:52:33;;;;;;;103.68;96.20;;;9.80;99.90;;;;;;5099653;28;20119;-68
2022/12/25 09:55:06;;;;;;;105.27;97.60;;;9.80;99.90;;;;;;5099128;28;20467;-68
2022/12/25 09:57:31;;;;;;;107.97;100.00;;;9.80;99.90;;;;;;5098828;28;20035;-68
2022/12/25 09:59:57;;;;;;;108.30;100.38;;;9.80;99.90;;;;;;5099416;28;20417;-67
2022/12/25 10:02:46;;;;;;;111.00;102.95;;;9.90;99.90;;;;;;5099376;28;20473;-67
2022/12/25 10:05:32;;;;;;;109.80;101.55;;;9.90;99.90;;;;;;5098599;28;20419;-67
2022/12/25 10:08:19;;;;;;;109.85;101.88;;;9.90;99.90;;;;;;5099036;28;20417;-67
2022/12/25 10:10:55;;;;;;;109.43;101.97;;;9.80;99.90;;;;;;5098178;28;20085;-67
2022/12/25 10:13:23;;;;;;;112.07;105.03;;;10.00;99.90;;;;;;5098066;28;20051;-68
2022/12/25 10:16:16;;;;;;;111.90;103.75;;;10.00;99.90;;;;;;5099119;28;20123;-67
2022/12/25 10:19:02;;;;;;;112.68;105.55;;;10.00;99.90;;;;;;5090697;28;20048;-67
2022/12/25 10:21:29;;;;;;;116.22;108.65;;;10.00;99.90;;;;;;5098651;28;20088;-67
2022/12/25 10:24:01;;;;;;;118.88;111.50;;;10.00;99.90;;;;;;5098966;28;20043;-67
2022/12/25 10:26:30;;;;;;;121.85;113.68;;;10.00;99.90;;;;;;5098455;28;20110;-67
2022/12/25 10:29:12;;;;;;;121.65;113.68;;;10.00;99.90;;;;;;5097646;28;20332;-67
2022/12/25 10:31:40;;;;;;;121.30;113.60;;;10.10;99.90;;;;;;5098875;28;20137;-67
2022/12/25 10:34:10;;;;;;;120.95;112.72;;;10.10;99.90;;;;;;5098355;28;20040;-67
2022/12/25 10:36:36;;;;;;;120.05;112.88;;;10.10;99.90;;;;;;5097957;28;20071;-68
2022/12/25 10:39:02;;;;;;;124.05;116.03;;;10.20;99.90;;;;;;5097021;28;20039;-68
2022/12/25 10:41:47;;;;;;;118.10;110.38;;;10.30;99.90;;;;;;5097637;28;20040;-68
2022/12/25 10:44:19;;;;;;;117.72;110.10;;;10.40;99.90;;;;;;5098247;28;20461;-67
2022/12/25 10:46:49;;;;;;;124.70;116.57;;;10.50;99.90;;;;;;5098505;28;20040;-68
2022/12/25 10:49:18;;;;;;;127.00;119.35;;;10.50;99.90;;;;;;5098460;28;20116;-67
2022/12/25 10:51:44;;;;;;;127.38;118.97;;;10.30;99.90;;;;;;5098385;28;20040;-68
2022/12/25 10:54:27;;;;;;;126.40;118.05;;;10.50;99.90;;;;;;5096995;28;20043;-68
2022/12/25 10:56:56;;;;;;;125.10;117.28;;;10.40;99.90;;;;;;5098292;28;20075;-68
2022/12/25 10:59:25;;;;;;;122.95;115.53;;;10.40;99.90;;;;;;5098277;28;20040;-68
2022/12/25 11:01:51;;;;;;;121.50;114.05;;;10.40;99.90;;;;;;5098268;28;20122;-68
2022/12/25 11:04:23;;;;;;;123.38;115.05;;;10.40;99.90;;;;;;5097771;28;20124;-68
2022/12/25 11:07:00;;;;;;;121.00;113.72;;;10.50;99.90;;;;;;5097790;28;20043;-68
2022/12/25 11:09:26;;;;;;;120.30;112.75;;;10.70;99.90;;;;;;5097878;28;20040;-68
2022/12/25 11:11:52;;;;;;;120.75;113.57;;;10.70;99.90;;;;;;5098039;28;20401;-68
2022/12/25 11:14:19;;;;;;;118.75;111.85;;;10.60;99.90;;;;;;5097999;28;20177;-68
2022/12/25 11:16:46;;;;;;;121.50;114.18;;;10.80;99.90;;;;;;5097883;28;20048;-68
2022/12/25 11:19:24;;;;;;;124.55;116.55;;;10.70;99.90;;;;;;5096669;28;20059;-68
2022/12/25 11:21:58;;;;;;;114.43;106.82;;;10.60;99.90;;;;;;5097809;28;20051;-68
2022/12/25 11:24:29;;;;;;;116.72;109.95;;;10.60;99.90;;;;;;5097811;28;20080;-68
2022/12/25 11:26:58;;;;;;;120.63;113.40;;;10.50;99.90;;;;;;5097354;28;20053;-68
2022/12/25 11:29:47;;;;;;;126.03;118.60;;;10.50;99.90;;;;;;5096671;28;20074;-68
2022/12/25 11:32:22;;;;;;;120.95;113.25;;;10.60;99.90;;;;;;5096840;28;20040;-68
2022/12/25 11:34:48;;;;;;;120.55;113.20;;;10.70;99.90;;;;;;5079007;28;20075;-68
2022/12/25 11:37:19;;;;;;;117.55;110.30;;;10.80;99.90;;;;;;5097131;28;20028;-68
2022/12/25 11:39:45;;;;;;;117.43;110.53;;;10.60;99.90;;;;;;5097477;28;20039;-68
2022/12/25 11:42:33;;;;;;;119.78;112.78;;;10.70;99.90;;;;;;5097499;28;20123;-68
2022/12/25 11:45:25;;;;;;;122.90;115.10;;;10.70;99.90;;;;;;5096081;28;20047;-68
2022/12/25 11:48:03;;;;;;;121.75;114.80;;;10.70;99.90;;;;;;5097406;28;20040;-68
2022/12/25 11:50:36;;;;;;;121.57;114.57;;;10.80;99.90;;;;;;5097115;28;20421;-69
2022/12/25 11:53:05;;;;;;;121.78;114.40;;;10.90;99.90;;;;;;5097036;28;20047;-68
2022/12/25 11:55:55;;;;;;;123.97;116.88;;;10.90;99.90;;;;;;5097003;28;20332;-68
2022/12/25 11:58:45;;;;;;;127.53;119.57;;;10.70;99.90;;;;;;5097322;28;20073;-68
2022/12/25 12:01:36;;;;;;;126.15;119.32;;;10.80;99.90;;;;;;5097700;28;20341;-68
2022/12/25 12:04:12;;;;;;;125.57;118.20;;;10.80;99.90;;;;;;5096809;28;20044;-68
2022/12/25 12:06:47;;;;;;;;;;;10.80;99.90;;;;;;5097740;28;20043;-68
2022/12/25 12:09:34;;;;;;;134.25;126.20;;;10.80;99.90;;;;;;5097087;28;19920;-68
2022/12/25 12:12:28;;;;;;;133.40;125.70;;;10.90;99.90;;;;;;5095984;28;20044;-67
2022/12/25 12:15:12;;;;;;;133.85;126.35;;;10.70;99.90;;;;;;5096167;28;20040;-69
2022/12/25 12:17:38;;;;;;;136.18;128.45;;;10.80;99.90;;;;;;5096968;28;20036;-69
2022/12/25 12:20:25;;;;;;;134.45;126.78;;;10.60;99.90;;;;;;5096909;28;20309;-69
2022/12/25 12:22:51;;;;;;;136.50;128.63;;;10.70;99.90;;;;;;5095927;28;20047;-68
2022/12/25 12:25:18;;;;;;;138.50;130.73;;;10.70;99.90;;;;;;5095143;28;20060;-68
2022/12/25 12:27:44;;;;;;;136.88;128.60;;;10.60;99.90;;;;;;5095836;28;20040;-68
2022/12/25 12:30:31;;;;;;;138.48;130.35;;;10.60;99.90;;;;;;5078715;28;20433;-68
2022/12/25 12:33:00;;;;;;;140.35;132.10;;;10.70;99.90;;;;;;5095458;28;20473;-68
2022/12/25 12:35:33;;;;;;;139.38;130.90;;;10.70;99.90;;;;;;5095917;28;20036;-69
2022/12/25 12:38:09;;;;;;;137.63;129.68;;;10.70;99.90;;;;;;5096435;28;20341;-68
2022/12/25 12:40:38;;;;;;;141.32;133.93;;;10.70;99.90;;;;;;5078563;28;20040;-68
2022/12/25 12:43:20;;;;;;;138.52;130.73;;;10.80;99.90;;;;;;5095713;28;20043;-68
2022/12/25 12:46:12;;;;;;;138.88;131.18;;;10.90;99.90;;;;;;5099508;28;20097;-68
2022/12/25 12:48:40;;;;;;;136.35;129.25;;;10.80;99.90;;;;;;5100527;28;20479;-69
2022/12/25 12:51:10;;;;;;;139.60;131.60;;;10.90;99.90;;;;;;5099456;28;20062;-68
2022/12/25 12:53:39;;;;;;;130.27;123.18;;;10.90;99.90;;;;;;5099797;28;20036;-68
2022/12/25 12:56:09;;;;;;;135.38;127.93;;;11.00;99.90;;;;;;5100639;28;20071;-68
2022/12/25 12:58:38;;;;;;;130.80;123.07;;;11.00;99.90;;;;;;5082389;28;20043;-68
2022/12/25 13:01:06;;;;;;;138.60;130.65;;;10.80;99.90;;;;;;5099252;28;20052;-68
2022/12/25 13:04:31;;;;;;;134.88;127.65;;;10.80;99.90;;;;;;5100081;28;20036;-68
2022/12/25 13:07:02;;;;;;;137.75;130.20;;;10.90;99.90;;;;;;5041104;28;20053;-68
2022/12/25 13:09:54;;;;;;;134.95;127.35;;;10.80;99.90;;;;;;5041295;28;20037;-68
2022/12/25 13:12:21;;;;;;;140.73;132.57;;;10.80;99.90;;;;;;5086811;28;20054;-68
2022/12/25 13:14:48;;;;;;;136.00;128.30;;;10.70;99.90;;;;;;5100326;28;20048;-68
2022/12/25 13:17:20;;;;;;;141.57;133.35;;;10.70;99.90;;;;;;5099157;28;20089;-70
2022/12/25 13:19:53;;;;;;;136.82;129.23;;;10.80;99.90;;;;;;5100262;28;20071;-68
2022/12/25 13:22:37;;;;;;;131.15;123.88;;;10.90;99.90;;;;;;5099413;28;20040;-68
2022/12/25 13:25:07;;;;;;;134.55;126.65;;;10.90;99.90;;;;;;5099583;28;20464;-68
2022/12/25 13:27:33;;;;;;;130.20;122.50;;;10.80;99.90;;;;;;5100097;28;20048;-68
2022/12/25 13:30:09;;;;;;;136.93;128.63;;;10.90;99.90;;;;;;5098976;28;20166;-68
2022/12/25 13:32:36;;;;;;;;;;;10.90;99.90;;;;;;5100385;28;20421;-68
2022/12/25 13:35:02;;;;;;;137.48;129.65;;;11.00;99.90;;;;;;5099381;28;19916;-69
2022/12/25 13:37:30;;;;;;;142.73;134.18;;;11.10;99.90;;;;;;5081620;28;20093;-67
2022/12/25 13:39:58;;;;;;;146.20;136.48;;;10.90;99.90;;;;;;5098518;28;20044;-67
2022/12/25 13:42:36;;;;;;;138.20;130.27;;;10.90;99.90;;;;;;5099814;28;20040;-67
2022/12/25 13:45:23;;;;;;;139.75;131.15;;;10.90;99.90;;;;;;5099703;28;20040;-67
2022/12/25 13:47:49;;;;;;;;;;;10.90;99.90;;;;;;5100390;28;20036;-67
2022/12/25 13:50:28;;;;;;;137.95;129.65;;;11.10;99.90;;;;;;5097792;28;20308;-68
2022/12/25 13:52:57;;;;;;;142.07;133.10;;;11.00;99.90;;;;;;5066139;28;20084;-67
2022/12/25 13:55:28;;;;;;;149.02;139.55;;;11.00;99.90;;;;;;5097358;28;20176;-67
2022/12/25 13:57:56;;;;;;;149.35;139.98;;;10.80;99.90;;;;;;5088251;28;20052;-67
2022/12/25 14:00:26;;;;;;;155.88;145.40;;;11.00;99.90;;;;;;5079964;28;20044;-68
2022/12/25 14:02:52;;;;;;;154.13;143.82;;;11.00;99.90;;;;;;5086534;28;20044;-67
2022/12/25 14:05:24;;;;;;;152.50;143.00;;;11.10;99.90;;;;;;5078477;28;20055;-67
2022/12/25 14:07:55;;;;;;;151.13;141.45;;;11.00;99.90;;;;;;5097917;28;20089;-68
2022/12/25 14:10:23;;;;;;;155.30;145.20;;;11.10;99.90;;;;;;5099063;28;20118;-68
2022/12/25 14:12:50;;;;;;;154.65;144.50;;;10.90;99.90;;;;;;5097658;28;20485;-67
2022/12/25 14:15:20;;;;;;;150.68;140.63;;;10.70;99.90;;;;;;5095748;28;20448;-67
2022/12/25 14:17:47;;;;;;;153.13;142.93;;;10.80;99.90;;;;;;5078747;28;20078;-70
2022/12/25 14:21:02;;;;;;;149.52;139.02;;;10.80;99.90;;;;;;5094271;28;20043;-71
2022/12/25 14:23:39;;;;;;;144.93;135.05;;;10.80;99.90;;;;;;5074716;28;20039;-67
2022/12/25 14:26:05;;;;;;;153.20;142.73;;;10.90;99.90;;;;;;5093747;28;20072;-68